Time;durP1;ratioP1;P1;durP2;ratioP2;P2;SDS_P1;SDS_P2;PMS_P1;PMS_P2;Temp;Humidity;BMP_temperature;BMP_pressure;BME280_temperature;BME280_humidity;BME280_pressure;Samples;Min_cycle;Max_cycle;Signal;HPM_P1;HPM_P2
2021/09/10 00:00:22;;;;;;;27.40;22.38;;;;;;;;;;5101357;28;20124;-67
2021/09/10 00:02:48;;;;;;;28.08;23.23;;;;;;;;;;5085276;28;20036;-66
2021/09/10 00:05:14;;;;;;;31.20;22.88;;;;;;;;;;5102321;28;20086;-67
2021/09/10 00:07:40;;;;;;;28.17;22.20;;;;;;;;;;5100047;28;20490;-67
2021/09/10 00:10:07;;;;;;;27.85;23.00;;;;;;;;;;5083380;28;20075;-66
2021/09/10 00:12:33;;;;;;;31.55;23.45;;;;;;;;;;5086329;28;20047;-67
2021/09/10 00:14:59;;;;;;;29.15;22.80;;;;;;;;;;5083333;28;20054;-67
2021/09/10 00:17:26;;;;;;;36.70;24.65;;;;;;;;;;5100700;28;20039;-66
2021/09/10 00:19:52;;;;;;;30.33;24.48;;;;;;;;;;5084709;28;20062;-67
2021/09/10 00:22:18;;;;;;;27.23;22.33;;;;;;;;;;5082610;28;20046;-66
2021/09/10 00:24:44;;;;;;;30.58;24.02;;;;;;;;;;5101829;28;20099;-67
2021/09/10 00:27:10;;;;;;;32.15;23.10;;;;;;;;;;5064512;28;20507;-67
2021/09/10 00:29:36;;;;;;;29.35;24.33;;;;;;;;;;5101386;28;20044;-67
2021/09/10 00:32:03;;;;;;;38.13;26.27;;;;;;;;;;5105920;28;20056;-67
2021/09/10 00:34:29;;;;;;;37.75;28.08;;;;;;;;;;5098948;28;20148;-67
2021/09/10 00:36:55;;;;;;;38.75;27.20;;;;;;;;;;5080938;28;20050;-67
2021/09/10 00:39:22;;;;;;;36.05;27.58;;;;;;;;;;5083573;28;20036;-67
2021/09/10 00:41:49;;;;;;;33.13;26.38;;;;;;;;;;5098248;28;20048;-67
2021/09/10 00:44:15;;;;;;;37.35;28.65;;;;;;;;;;5081291;28;20752;-67
2021/09/10 00:46:41;;;;;;;39.13;28.02;;;;;;;;;;5099309;28;20090;-67
2021/09/10 00:49:09;;;;;;;37.47;28.73;;;;;;;;;;5103031;28;20060;-67
2021/09/10 00:51:35;;;;;;;38.63;29.27;;;;;;;;;;5085327;28;20743;-66
2021/09/10 00:54:01;;;;;;;34.45;28.70;;;;;;;;;;5101224;28;20202;-67
2021/09/10 00:56:27;;;;;;;41.15;30.48;;;;;;;;;;5098396;28;20145;-67
2021/09/10 00:58:56;;;;;;;39.45;30.05;;;;;;;;;;5104473;28;20497;-67
2021/09/10 01:01:23;;;;;;;39.28;30.23;;;;;;;;;;5100760;28;20058;-67
2021/09/10 01:03:49;;;;;;;38.85;30.80;;;;;;;;;;5083327;28;20131;-66
2021/09/10 01:06:15;;;;;;;40.08;29.67;;;;;;;;;;5081999;28;20051;-67
2021/09/10 01:08:42;;;;;;;38.53;29.65;;;;;;;;;;5101215;28;20122;-66
2021/09/10 01:11:08;;;;;;;40.22;30.63;;;;;;;;;;5099771;28;20161;-67
2021/09/10 01:13:35;;;;;;;41.45;30.15;;;;;;;;;;5102507;28;20122;-67
2021/09/10 01:16:02;;;;;;;40.05;29.70;;;;;;;;;;5080496;28;20048;-67
2021/09/10 01:18:28;;;;;;;39.78;30.55;;;;;;;;;;5103034;28;20511;-67
2021/09/10 01:20:54;;;;;;;44.13;33.03;;;;;;;;;;5081960;28;20048;-67
2021/09/10 01:23:20;;;;;;;41.40;33.45;;;;;;;;;;5080719;28;20108;-67
2021/09/10 01:25:47;;;;;;;42.03;32.83;;;;;;;;;;5079582;28;20091;-67
2021/09/10 01:28:15;;;;;;;56.50;37.00;;;;;;;;;;5084921;28;20050;-67
2021/09/10 01:30:42;;;;;;;58.03;39.92;;;;;;;;;;5101646;28;20970;-68
2021/09/10 01:33:10;;;;;;;51.15;35.50;;;;;;;;;;5101766;28;20044;-67
2021/09/10 01:35:36;;;;;;;51.83;36.42;;;;;;;;;;5078398;28;20040;-67
2021/09/10 01:38:03;;;;;;;45.70;35.47;;;;;;;;;;5082701;28;20044;-67
2021/09/10 01:40:30;;;;;;;50.88;36.65;;;;;;;;;;5102347;28;20460;-67
2021/09/10 01:42:56;;;;;;;45.88;33.67;;;;;;;;;;5100626;28;20382;-67
2021/09/10 01:45:22;;;;;;;49.28;36.28;;;;;;;;;;5100135;28;20059;-67
2021/09/10 01:47:48;;;;;;;46.78;33.15;;;;;;;;;;5081077;28;20043;-67
2021/09/10 01:50:16;;;;;;;44.15;34.38;;;;;;;;;;5082102;28;20193;-67
2021/09/10 01:52:42;;;;;;;47.83;34.13;;;;;;;;;;5078767;28;20056;-67
2021/09/10 01:55:12;;;;;;;43.83;33.50;;;;;;;;;;5100164;28;20166;-67
2021/09/10 01:57:38;;;;;;;44.25;34.83;;;;;;;;;;5100526;28;20169;-67
2021/09/10 02:00:05;;;;;;;47.42;34.20;;;;;;;;;;5081586;28;20043;-67
2021/09/10 02:02:31;;;;;;;50.42;35.10;;;;;;;;;;5101982;28;20058;-67
2021/09/10 02:04:57;;;;;;;48.33;34.65;;;;;;;;;;5104126;28;20500;-67
2021/09/10 02:07:23;;;;;;;45.30;33.15;;;;;;;;;;5100635;28;20402;-67
2021/09/10 02:09:49;;;;;;;48.58;34.05;;;;;;;;;;5103447;28;20044;-67
2021/09/10 02:12:16;;;;;;;42.75;32.63;;;;;;;;;;5101831;28;20398;-67
2021/09/10 02:14:42;;;;;;;42.13;31.83;;;;;;;;;;5100425;28;20040;-67
2021/09/10 02:17:08;;;;;;;38.60;31.13;;;;;;;;;;5102430;28;20155;-67
2021/09/10 02:19:34;;;;;;;40.67;30.17;;;;;;;;;;5102583;28;20408;-67
2021/09/10 02:22:01;;;;;;;46.28;32.08;;;;;;;;;;5101320;28;20075;-67
2021/09/10 02:24:27;;;;;;;38.60;27.77;;;;;;;;;;5098258;28;20051;-67
2021/09/10 02:26:54;;;;;;;39.55;28.95;;;;;;;;;;5100222;28;20044;-67
2021/09/10 02:29:20;;;;;;;40.42;29.67;;;;;;;;;;5098722;28;20635;-67
2021/09/10 02:31:46;;;;;;;41.13;31.15;;;;;;;;;;5104184;28;20039;-67
2021/09/10 02:34:12;;;;;;;39.42;30.92;;;;;;;;;;5082744;28;20048;-67
2021/09/10 02:36:38;;;;;;;36.40;27.88;;;;;;;;;;5084909;28;20052;-67
2021/09/10 02:39:06;;;;;;;37.80;28.60;;;;;;;;;;5101418;28;20442;-67
2021/09/10 02:41:33;;;;;;;35.33;28.50;;;;;;;;;;5084296;28;20048;-67
2021/09/10 02:43:59;;;;;;;36.08;26.75;;;;;;;;;;5079373;28;20040;-67
2021/09/10 02:46:25;;;;;;;39.45;30.63;;;;;;;;;;5100093;28;20416;-67
2021/09/10 02:48:51;;;;;;;34.33;26.52;;;;;;;;;;5097356;28;20051;-67
2021/09/10 02:51:17;;;;;;;35.85;26.77;;;;;;;;;;5097900;28;20077;-67
2021/09/10 02:53:43;;;;;;;40.75;28.45;;;;;;;;;;5098170;28;20423;-67
2021/09/10 02:56:10;;;;;;;40.03;29.65;;;;;;;;;;5100720;28;20537;-67
2021/09/10 02:58:36;;;;;;;38.15;28.23;;;;;;;;;;5096589;28;20058;-67
2021/09/10 03:01:02;;;;;;;36.55;27.10;;;;;;;;;;5100996;28;20086;-67
2021/09/10 03:03:29;;;;;;;39.47;30.15;;;;;;;;;;5081290;28;20034;-67
2021/09/10 03:05:56;;;;;;;43.13;29.60;;;;;;;;;;5103689;28;20036;-67
2021/09/10 03:08:22;;;;;;;35.08;27.73;;;;;;;;;;5100005;28;20035;-67
2021/09/10 03:10:48;;;;;;;40.35;27.00;;;;;;;;;;5103418;28;20079;-67
2021/09/10 03:13:15;;;;;;;40.55;28.58;;;;;;;;;;5103143;28;20040;-67
2021/09/10 03:15:41;;;;;;;34.90;26.20;;;;;;;;;;5099902;28;20076;-67
2021/09/10 03:18:07;;;;;;;35.95;27.98;;;;;;;;;;5098282;28;20036;-67
2021/09/10 03:20:34;;;;;;;36.22;26.90;;;;;;;;;;5095507;28;20047;-67
2021/09/10 03:23:00;;;;;;;39.67;28.67;;;;;;;;;;5097567;28;20395;-67
2021/09/10 03:25:26;;;;;;;38.38;27.73;;;;;;;;;;5100179;28;20188;-67
2021/09/10 03:27:52;;;;;;;41.38;28.27;;;;;;;;;;5081950;28;20047;-67
2021/09/10 03:30:20;;;;;;;34.30;26.08;;;;;;;;;;5078871;28;20050;-67
2021/09/10 03:32:47;;;;;;;38.42;26.88;;;;;;;;;;5097104;28;20192;-67
2021/09/10 03:35:14;;;;;;;38.67;27.40;;;;;;;;;;5083804;28;20482;-67
2021/09/10 03:37:40;;;;;;;37.83;26.02;;;;;;;;;;5100121;28;20352;-67
2021/09/10 03:40:07;;;;;;;33.67;25.92;;;;;;;;;;5093334;28;20043;-67
2021/09/10 03:42:35;;;;;;;32.30;25.42;;;;;;;;;;5096668;28;20122;-67
2021/09/10 03:45:01;;;;;;;35.17;26.95;;;;;;;;;;5104364;28;20518;-67
2021/09/10 03:47:27;;;;;;;36.25;25.73;;;;;;;;;;5103950;28;20079;-67
2021/09/10 03:49:53;;;;;;;33.63;25.13;;;;;;;;;;5100238;28;20043;-67
2021/09/10 03:52:19;;;;;;;35.38;26.50;;;;;;;;;;5081487;28;20036;-67
2021/09/10 03:54:46;;;;;;;34.72;25.70;;;;;;;;;;5096994;28;20058;-67
2021/09/10 03:57:12;;;;;;;33.22;27.02;;;;;;;;;;5098563;28;20130;-67
2021/09/10 03:59:38;;;;;;;34.80;28.08;;;;;;;;;;5098492;28;20052;-67
2021/09/10 04:02:04;;;;;;;32.70;26.35;;;;;;;;;;5095543;28;20044;-67
2021/09/10 04:04:31;;;;;;;38.33;27.13;;;;;;;;;;5097426;28;20333;-67
2021/09/10 04:06:57;;;;;;;40.63;26.58;;;;;;;;;;5101936;28;20044;-67
2021/09/10 04:09:23;;;;;;;42.53;29.70;;;;;;;;;;5083619;28;20409;-67
2021/09/10 04:11:49;;;;;;;37.42;27.58;;;;;;;;;;5096729;28;20044;-67
2021/09/10 04:14:15;;;;;;;42.55;28.65;;;;;;;;;;5100234;28;20035;-67
2021/09/10 04:16:42;;;;;;;37.50;28.63;;;;;;;;;;5104127;28;20062;-67
2021/09/10 04:19:08;;;;;;;36.45;26.73;;;;;;;;;;5082146;28;20027;-67
2021/09/10 04:21:34;;;;;;;37.72;27.20;;;;;;;;;;5102530;28;20454;-67
2021/09/10 04:24:00;;;;;;;37.10;27.15;;;;;;;;;;5104962;28;20557;-67
2021/09/10 04:26:26;;;;;;;35.95;27.65;;;;;;;;;;5104231;28;20333;-67
2021/09/10 04:28:53;;;;;;;42.03;29.13;;;;;;;;;;5103558;28;20036;-67
2021/09/10 04:31:19;;;;;;;43.45;28.88;;;;;;;;;;5102993;28;20096;-67
2021/09/10 04:33:46;;;;;;;40.60;29.40;;;;;;;;;;5105838;28;20097;-67
2021/09/10 04:36:13;;;;;;;37.20;27.25;;;;;;;;;;5103333;28;20138;-67
2021/09/10 04:38:39;;;;;;;40.67;30.38;;;;;;;;;;5104408;28;20051;-67
2021/09/10 04:41:05;;;;;;;43.78;30.73;;;;;;;;;;5084825;28;20051;-67
2021/09/10 04:43:31;;;;;;;51.10;34.45;;;;;;;;;;5106281;28;20035;-67
2021/09/10 04:45:58;;;;;;;45.75;32.55;;;;;;;;;;5088463;28;20512;-67
2021/09/10 04:48:24;;;;;;;42.17;31.58;;;;;;;;;;5067202;28;20593;-67
2021/09/10 04:50:50;;;;;;;49.63;34.25;;;;;;;;;;5102488;28;20036;-66
2021/09/10 04:53:17;;;;;;;46.17;31.52;;;;;;;;;;5085643;28;20189;-67
2021/09/10 04:55:43;;;;;;;50.47;34.15;;;;;;;;;;5097917;28;20052;-67
2021/09/10 04:58:09;;;;;;;46.58;34.15;;;;;;;;;;5106224;28;20044;-67
2021/09/10 05:00:35;;;;;;;46.03;34.58;;;;;;;;;;5100267;28;20043;-67
2021/09/10 05:03:01;;;;;;;47.53;34.55;;;;;;;;;;5081746;28;20606;-67
2021/09/10 05:05:27;;;;;;;48.70;36.30;;;;;;;;;;5088950;28;20039;-67
2021/09/10 05:07:54;;;;;;;49.47;34.70;;;;;;;;;;5099913;28;20514;-67
2021/09/10 05:10:21;;;;;;;52.70;33.80;;;;;;;;;;5089847;28;20047;-68
2021/09/10 05:12:47;;;;;;;51.20;34.83;;;;;;;;;;5078288;28;20390;-67
2021/09/10 05:15:13;;;;;;;46.45;35.92;;;;;;;;;;5090468;28;20047;-69
2021/09/10 05:17:39;;;;;;;49.13;34.13;;;;;;;;;;5096171;28;21607;-69
2021/09/10 05:20:07;;;;;;;47.25;34.33;;;;;;;;;;5089621;28;20101;-69
2021/09/10 05:22:34;;;;;;;52.65;36.40;;;;;;;;;;5095100;28;20058;-69
2021/09/10 05:25:01;;;;;;;48.47;33.90;;;;;;;;;;5079596;28;20138;-69
2021/09/10 05:27:27;;;;;;;54.42;36.17;;;;;;;;;;5080386;28;20226;-68
2021/09/10 05:29:53;;;;;;;47.00;33.25;;;;;;;;;;5083819;28;20075;-68
2021/09/10 05:32:20;;;;;;;55.78;36.42;;;;;;;;;;5075792;28;20071;-70
2021/09/10 05:34:46;;;;;;;52.25;36.33;;;;;;;;;;5078267;28;20530;-68
2021/09/10 05:37:12;;;;;;;55.75;39.67;;;;;;;;;;5085285;28;20048;-68
2021/09/10 05:39:38;;;;;;;43.88;32.55;;;;;;;;;;5081138;28;20491;-68
2021/09/10 05:42:05;;;;;;;47.42;32.55;;;;;;;;;;5077892;28;20115;-68
2021/09/10 05:44:31;;;;;;;49.33;36.20;;;;;;;;;;5078401;28;20057;-69
2021/09/10 05:46:57;;;;;;;59.28;37.38;;;;;;;;;;5077319;28;20044;-68
2021/09/10 05:49:23;;;;;;;61.13;38.55;;;;;;;;;;5081952;28;20045;-68
2021/09/10 05:51:51;;;;;;;60.80;39.78;;;;;;;;;;5086750;28;20048;-68
2021/09/10 05:54:17;;;;;;;58.83;40.35;;;;;;;;;;5080351;28;20093;-68
2021/09/10 05:56:43;;;;;;;55.25;37.42;;;;;;;;;;5074324;28;20054;-68
2021/09/10 05:59:09;;;;;;;55.05;39.63;;;;;;;;;;5080075;28;20570;-68
2021/09/10 06:01:35;;;;;;;61.03;40.67;;;;;;;;;;5083870;28;20335;-68
2021/09/10 06:04:02;;;;;;;61.47;41.92;;;;;;;;;;5082810;28;20043;-68
2021/09/10 06:06:28;;;;;;;59.53;39.50;;;;;;;;;;5084307;28;20119;-68
2021/09/10 06:08:54;;;;;;;53.20;39.97;;;;;;;;;;5082480;28;20136;-68
2021/09/10 06:11:20;;;;;;;60.83;41.47;;;;;;;;;;5083569;28;20040;-68
2021/09/10 06:13:46;;;;;;;59.90;40.85;;;;;;;;;;5078838;28;20131;-68
2021/09/10 06:16:12;;;;;;;65.18;42.58;;;;;;;;;;5085799;28;20165;-68
2021/09/10 06:18:39;;;;;;;62.55;45.00;;;;;;;;;;5083552;28;20048;-67
2021/09/10 06:21:05;;;;;;;66.07;45.80;;;;;;;;;;5085571;28;20079;-67
2021/09/10 06:23:31;;;;;;;78.97;47.67;;;;;;;;;;5089542;28;20122;-67
2021/09/10 06:25:57;;;;;;;71.30;44.83;;;;;;;;;;5085881;28;20047;-67
2021/09/10 06:28:23;;;;;;;66.95;45.28;;;;;;;;;;5087591;28;20087;-66
2021/09/10 06:30:50;;;;;;;70.55;47.17;;;;;;;;;;5076766;28;20048;-66
2021/09/10 06:33:16;;;;;;;70.30;48.67;;;;;;;;;;5078490;28;20044;-66
2021/09/10 06:35:42;;;;;;;73.70;48.17;;;;;;;;;;5082456;28;20127;-66
2021/09/10 06:38:08;;;;;;;74.72;49.95;;;;;;;;;;5083014;28;20491;-66
2021/09/10 06:40:34;;;;;;;76.85;51.70;;;;;;;;;;5077910;28;20116;-67
2021/09/10 06:43:01;;;;;;;88.05;54.65;;;;;;;;;;5076155;28;20048;-67
2021/09/10 06:45:27;;;;;;;75.88;51.17;;;;;;;;;;5086668;28;20063;-66
2021/09/10 06:47:53;;;;;;;77.97;53.00;;;;;;;;;;5079255;28;20061;-66
2021/09/10 06:50:19;;;;;;;80.93;54.92;;;;;;;;;;5087687;28;20079;-66
2021/09/10 06:52:45;;;;;;;78.55;53.83;;;;;;;;;;5079448;28;20051;-66
2021/09/10 06:55:12;;;;;;;83.95;58.63;;;;;;;;;;5076167;28;20045;-66
2021/09/10 06:57:38;;;;;;;82.22;56.30;;;;;;;;;;5080144;28;20044;-66
2021/09/10 07:00:06;;;;;;;77.13;54.10;;;;;;;;;;5081314;28;20044;-66
2021/09/10 07:02:32;;;;;;;82.43;55.38;;;;;;;;;;5083885;28;20036;-66
2021/09/10 07:04:58;;;;;;;81.72;55.45;;;;;;;;;;5085268;28;20101;-66
2021/09/10 07:07:24;;;;;;;78.95;56.00;;;;;;;;;;5083102;28;20081;-66
2021/09/10 07:09:51;;;;;;;79.78;55.78;;;;;;;;;;5082275;28;20041;-66
2021/09/10 07:12:18;;;;;;;73.13;54.05;;;;;;;;;;5078794;28;20511;-66
2021/09/10 07:14:45;;;;;;;78.00;54.22;;;;;;;;;;5084720;28;20491;-66
2021/09/10 07:17:11;;;;;;;78.85;53.45;;;;;;;;;;5079638;28;21567;-66
2021/09/10 07:19:37;;;;;;;76.22;54.88;;;;;;;;;;5086434;28;20552;-66
2021/09/10 07:22:03;;;;;;;76.00;54.17;;;;;;;;;;5082349;28;20052;-66
2021/09/10 07:24:30;;;;;;;73.43;53.53;;;;;;;;;;5085777;28;20547;-66
2021/09/10 07:26:56;;;;;;;77.70;56.63;;;;;;;;;;5084234;28;20040;-66
2021/09/10 07:29:23;;;;;;;81.85;56.47;;;;;;;;;;5079666;28;20123;-66
2021/09/10 07:31:50;;;;;;;80.38;55.10;;;;;;;;;;5081775;28;20483;-66
2021/09/10 07:34:16;;;;;;;77.72;55.22;;;;;;;;;;5080355;28;20125;-66
2021/09/10 07:36:48;;;;;;;74.70;54.10;;;;;;;;;;5087762;28;20466;-66
2021/09/10 07:39:14;;;;;;;78.22;54.17;;;;;;;;;;5078568;28;20092;-66
2021/09/10 07:41:41;;;;;;;77.40;54.92;;;;;;;;;;5075275;28;20042;-66
2021/09/10 07:44:07;;;;;;;75.93;54.67;;;;;;;;;;5074572;28;20056;-66
2021/09/10 07:46:33;;;;;;;76.75;55.15;;;;;;;;;;5076349;28;20055;-66
2021/09/10 07:48:59;;;;;;;75.70;54.88;;;;;;;;;;5061058;28;20054;-66
2021/09/10 07:51:25;;;;;;;76.30;56.10;;;;;;;;;;5082573;28;20048;-66
2021/09/10 07:53:52;;;;;;;72.25;56.00;;;;;;;;;;5090532;28;20078;-66
2021/09/10 07:56:18;;;;;;;83.32;56.97;;;;;;;;;;5083960;28;20052;-66
2021/09/10 07:58:44;;;;;;;74.40;53.08;;;;;;;;;;5087434;28;20056;-66
2021/09/10 08:01:10;;;;;;;73.45;53.97;;;;;;;;;;5085271;28;20062;-66
2021/09/10 08:03:36;;;;;;;78.93;57.33;;;;;;;;;;5077290;28;20094;-66
2021/09/10 08:06:03;;;;;;;76.13;53.80;;;;;;;;;;5085671;28;20113;-66
2021/09/10 08:08:29;;;;;;;74.18;54.17;;;;;;;;;;5080392;28;20048;-66
2021/09/10 08:10:55;;;;;;;73.57;56.15;;;;;;;;;;5083029;28;20052;-67
2021/09/10 08:13:21;;;;;;;78.65;56.88;;;;;;;;;;5085722;28;20490;-67
2021/09/10 08:15:47;;;;;;;84.38;58.33;;;;;;;;;;5085766;28;20188;-66
2021/09/10 08:18:13;;;;;;;85.60;59.80;;;;;;;;;;5089387;28;20414;-66
2021/09/10 08:20:40;;;;;;;85.22;60.55;;;;;;;;;;5084025;28;20048;-66
2021/09/10 08:23:06;;;;;;;91.20;60.78;;;;;;;;;;5081826;28;20104;-66
2021/09/10 08:25:32;;;;;;;82.38;58.95;;;;;;;;;;5084560;28;20040;-66
2021/09/10 08:27:58;;;;;;;83.35;58.90;;;;;;;;;;5089428;28;20047;-66
2021/09/10 08:30:24;;;;;;;84.13;60.30;;;;;;;;;;5085761;28;20051;-66
2021/09/10 08:32:52;;;;;;;90.20;60.97;;;;;;;;;;5077259;28;20063;-66
2021/09/10 08:35:18;;;;;;;97.10;62.80;;;;;;;;;;5093656;28;20459;-66
2021/09/10 08:37:44;;;;;;;90.78;64.18;;;;;;;;;;5092525;28;20430;-66
2021/09/10 08:40:11;;;;;;;97.65;61.45;;;;;;;;;;5073957;28;20051;-66
2021/09/10 08:42:37;;;;;;;94.63;61.80;;;;;;;;;;5075126;28;20052;-66
2021/09/10 08:45:04;;;;;;;93.07;63.13;;;;;;;;;;5074890;28;20402;-66
2021/09/10 08:47:31;;;;;;;96.72;64.70;;;;;;;;;;5090159;28;20081;-66
2021/09/10 08:49:58;;;;;;;95.13;63.17;;;;;;;;;;5075215;28;20048;-66
2021/09/10 08:52:24;;;;;;;98.90;65.30;;;;;;;;;;5093497;28;20449;-66
2021/09/10 08:54:50;;;;;;;93.68;64.82;;;;;;;;;;5057230;28;20086;-66
2021/09/10 08:57:17;;;;;;;96.85;64.63;;;;;;;;;;5092970;28;20131;-70
2021/09/10 08:59:43;;;;;;;97.07;63.95;;;;;;;;;;5074882;28;20101;-69
2021/09/10 09:02:09;;;;;;;95.05;64.60;;;;;;;;;;5090122;28;20169;-77
2021/09/10 09:04:37;;;;;;;91.38;63.60;;;;;;;;;;5074900;28;20036;-69
2021/09/10 09:07:04;;;;;;;97.13;64.85;;;;;;;;;;5092507;28;20052;-69
2021/09/10 09:09:37;;;;;;;90.82;62.78;;;;;;;;;;5073906;28;20044;-69
2021/09/10 09:12:18;;;;;;;97.00;66.22;;;;;;;;;;5091404;28;20118;-68
2021/09/10 09:14:47;;;;;;;96.55;64.60;;;;;;;;;;5091811;28;20105;-69
2021/09/10 09:17:18;;;;;;;101.40;69.20;;;;;;;;;;5092055;28;20032;-68
2021/09/10 09:19:44;;;;;;;100.70;67.10;;;;;;;;;;5074463;28;20215;-69
2021/09/10 09:22:10;;;;;;;106.47;67.90;;;;;;;;;;5073366;28;20044;-68
2021/09/10 09:24:37;;;;;;;106.07;70.72;;;;;;;;;;5075139;28;20368;-69
2021/09/10 09:27:08;;;;;;;110.97;70.47;;;;;;;;;;5073881;28;20047;-68
2021/09/10 09:29:48;;;;;;;106.35;67.63;;;;;;;;;;5073408;28;20073;-68
2021/09/10 09:32:15;;;;;;;110.95;68.72;;;;;;;;;;5098927;28;20510;-68
2021/09/10 09:34:43;;;;;;;106.95;68.57;;;;;;;;;;5107485;28;20055;-68
2021/09/10 09:37:09;;;;;;;109.15;70.47;;;;;;;;;;5101062;28;20048;-68
2021/09/10 09:39:49;;;;;;;117.32;72.35;;;;;;;;;;5083007;28;20051;-69
2021/09/10 09:42:15;;;;;;;107.32;71.03;;;;;;;;;;5069182;28;20122;-68
2021/09/10 09:45:01;;;;;;;112.38;72.10;;;;;;;;;;5082766;28;20439;-69
2021/09/10 09:47:27;;;;;;;111.18;71.05;;;;;;;;;;5081901;28;20048;-68
2021/09/10 09:50:03;;;;;;;119.45;72.68;;;;;;;;;;5080181;28;20108;-69
2021/09/10 09:52:31;;;;;;;110.15;72.00;;;;;;;;;;5099714;28;20039;-69
2021/09/10 09:54:57;;;;;;;120.07;74.25;;;;;;;;;;5104453;28;20070;-68
2021/09/10 09:57:24;;;;;;;106.38;67.20;;;;;;;;;;5063030;28;20056;-68
2021/09/10 09:59:50;;;;;;;108.60;69.13;;;;;;;;;;5081386;28;20443;-68
2021/09/10 10:02:16;;;;;;;104.35;66.63;;;;;;;;;;5088973;28;20035;-69
2021/09/10 10:04:42;;;;;;;102.43;66.85;;;;;;;;;;5084241;28;20281;-68
2021/09/10 10:07:09;;;;;;;111.90;68.45;;;;;;;;;;5102241;28;20044;-68
2021/09/10 10:09:36;;;;;;;109.28;68.28;;;;;;;;;;5109836;28;20047;-68
2021/09/10 10:12:03;;;;;;;108.03;68.85;;;;;;;;;;5096729;28;20126;-67
2021/09/10 10:14:37;;;;;;;99.93;66.00;;;;;;;;;;5109283;28;20043;-67
2021/09/10 10:17:03;;;;;;;;;;;;;;;;;;5086121;28;20554;-67
2021/09/10 10:19:33;;;;;;;101.68;66.60;;;;;;;;;;5102012;28;20010;-67
2021/09/10 10:22:05;;;;;;;109.47;69.63;;;;;;;;;;5083487;28;20048;-67
2021/09/10 10:24:39;;;;;;;103.72;65.80;;;;;;;;;;5086068;28;20054;-67
2021/09/10 10:27:23;;;;;;;104.93;66.47;;;;;;;;;;5078312;28;20052;-67
2021/09/10 10:29:50;;;;;;;104.32;68.65;;;;;;;;;;5088501;28;20051;-67
2021/09/10 10:32:29;;;;;;;102.68;66.75;;;;;;;;;;5086382;28;20040;-67
2021/09/10 10:35:15;;;;;;;98.53;64.88;;;;;;;;;;5079296;28;20068;-67
2021/09/10 10:37:47;;;;;;;95.43;61.67;;;;;;;;;;5081946;28;20037;-67
2021/09/10 10:40:28;;;;;;;93.10;62.38;;;;;;;;;;5085490;28;20050;-67
2021/09/10 10:42:55;;;;;;;88.88;58.63;;;;;;;;;;5082244;28;20051;-67
2021/09/10 10:45:41;;;;;;;86.20;58.67;;;;;;;;;;5086828;28;20051;-67
2021/09/10 10:48:26;;;;;;;84.82;57.53;;;;;;;;;;5078134;28;20387;-67
2021/09/10 10:50:52;;;;;;;79.05;57.20;;;;;;;;;;5084953;28;20044;-67
2021/09/10 10:53:19;;;;;;;76.82;55.88;;;;;;;;;;5079399;28;20052;-67
2021/09/10 10:55:45;;;;;;;77.38;55.92;;;;;;;;;;5081588;28;20093;-67
2021/09/10 10:58:22;;;;;;;81.15;58.30;;;;;;;;;;5077871;28;20044;-67
2021/09/10 11:00:51;;;;;;;74.50;54.75;;;;;;;;;;5083191;28;20044;-67
2021/09/10 11:03:18;;;;;;;71.38;51.55;;;;;;;;;;5079317;28;20086;-67
2021/09/10 11:05:45;;;;;;;60.42;45.60;;;;;;;;;;5079969;28;20044;-67
2021/09/10 11:08:11;;;;;;;64.47;47.03;;;;;;;;;;5077521;28;20119;-67
2021/09/10 11:10:38;;;;;;;61.38;45.65;;;;;;;;;;5079750;28;20044;-67
2021/09/10 11:13:04;;;;;;;58.80;45.00;;;;;;;;;;5077606;28;20106;-67
2021/09/10 11:15:33;;;;;;;48.78;37.33;;;;;;;;;;5077414;28;20044;-67
2021/09/10 11:18:04;;;;;;;47.60;37.65;;;;;;;;;;5080475;28;20040;-67
2021/09/10 11:20:30;;;;;;;40.78;34.50;;;;;;;;;;5076422;28;20048;-68
2021/09/10 11:22:56;;;;;;;42.78;32.38;;;;;;;;;;5079362;28;20056;-68
2021/09/10 11:25:23;;;;;;;35.95;31.13;;;;;;;;;;5079248;28;20182;-68
2021/09/10 11:27:49;;;;;;;36.13;31.17;;;;;;;;;;5077426;28;20033;-67
2021/09/10 11:30:15;;;;;;;34.10;28.35;;;;;;;;;;5073143;28;20230;-67
2021/09/10 11:32:42;;;;;;;28.23;24.75;;;;;;;;;;5077345;28;20403;-68
2021/09/10 11:35:17;;;;;;;29.80;25.02;;;;;;;;;;5078133;28;20052;-66
2021/09/10 11:37:50;;;;;;;32.47;25.40;;;;;;;;;;5080452;28;20205;-65
2021/09/10 11:40:27;;;;;;;28.88;23.58;;;;;;;;;;5084387;28;20085;-66
2021/09/10 11:43:01;;;;;;;27.05;24.17;;;;;;;;;;5077395;28;20048;-66
2021/09/10 11:45:30;;;;;;;30.63;25.75;;;;;;;;;;5083736;28;20036;-66
2021/09/10 11:47:56;;;;;;;28.27;23.80;;;;;;;;;;5075666;28;20044;-66
2021/09/10 11:50:22;;;;;;;28.60;23.75;;;;;;;;;;5078333;28;20040;-66
2021/09/10 11:52:48;;;;;;;27.67;23.77;;;;;;;;;;5078315;28;20432;-66
2021/09/10 11:55:17;;;;;;;24.83;22.20;;;;;;;;;;5078213;28;20055;-66
2021/09/10 11:57:44;;;;;;;24.58;22.02;;;;;;;;;;5077664;28;20550;-66
2021/09/10 12:00:22;;;;;;;30.80;24.58;;;;;;;;;;5080001;28;20399;-66
2021/09/10 12:02:58;;;;;;;29.30;23.95;;;;;;;;;;5080727;28;20043;-66
2021/09/10 12:05:24;;;;;;;28.58;25.40;;;;;;;;;;5075590;28;20056;-66
2021/09/10 12:07:51;;;;;;;25.52;22.92;;;;;;;;;;5080823;28;20044;-66
2021/09/10 12:10:31;;;;;;;26.27;23.48;;;;;;;;;;5081716;28;20052;-66
2021/09/10 12:13:08;;;;;;;30.00;25.60;;;;;;;;;;5084114;28;20396;-66
2021/09/10 12:15:35;;;;;;;28.20;24.20;;;;;;;;;;5086089;28;20044;-66
2021/09/10 12:18:08;;;;;;;28.35;25.35;;;;;;;;;;5089850;28;20120;-66
2021/09/10 12:20:34;;;;;;;27.77;24.77;;;;;;;;;;5079858;28;20040;-66
2021/09/10 12:23:01;;;;;;;28.08;24.63;;;;;;;;;;5074775;28;20037;-66
2021/09/10 12:25:30;;;;;;;29.92;23.55;;;;;;;;;;5088872;28;20108;-66
2021/09/10 12:28:04;;;;;;;31.02;26.83;;;;;;;;;;5086436;28;20047;-67
2021/09/10 12:30:32;;;;;;;31.88;28.02;;;;;;;;;;5077862;28;20052;-66
2021/09/10 12:32:59;;;;;;;32.45;25.90;;;;;;;;;;5093615;28;20040;-66
2021/09/10 12:35:26;;;;;;;28.88;25.00;;;;;;;;;;5107876;28;20152;-66
2021/09/10 12:37:54;;;;;;;29.73;25.65;;;;;;;;;;5109345;28;20047;-66
2021/09/10 12:40:21;;;;;;;32.80;28.73;;;;;;;;;;5084937;28;20062;-66
2021/09/10 12:42:48;;;;;;;35.42;28.65;;;;;;;;;;5104228;28;20054;-66
2021/09/10 12:45:15;;;;;;;33.33;27.70;;;;;;;;;;5085980;28;20044;-66
2021/09/10 12:47:42;;;;;;;36.97;29.30;;;;;;;;;;5080318;28;20481;-66
2021/09/10 12:50:08;;;;;;;33.85;27.10;;;;;;;;;;5085656;28;20066;-66
2021/09/10 12:52:35;;;;;;;32.45;25.75;;;;;;;;;;5093820;28;20570;-66
2021/09/10 12:55:05;;;;;;;32.83;27.92;;;;;;;;;;5075752;28;20180;-65
2021/09/10 12:57:32;;;;;;;32.25;26.58;;;;;;;;;;5082595;28;20379;-66
2021/09/10 12:59:58;;;;;;;31.63;26.40;;;;;;;;;;5104362;28;20574;-66
2021/09/10 13:02:24;;;;;;;39.47;29.63;;;;;;;;;;5076988;28;20054;-66
2021/09/10 13:04:51;;;;;;;38.17;32.40;;;;;;;;;;5085176;28;20117;-66
2021/09/10 13:07:17;;;;;;;43.42;32.10;;;;;;;;;;5100807;28;20055;-66
2021/09/10 13:09:43;;;;;;;37.38;31.17;;;;;;;;;;5085949;28;20593;-66
2021/09/10 13:12:09;;;;;;;39.70;30.15;;;;;;;;;;5098427;28;20043;-66
2021/09/10 13:14:35;;;;;;;41.45;33.55;;;;;;;;;;5099515;28;20047;-66
2021/09/10 13:17:02;;;;;;;43.55;33.75;;;;;;;;;;5102263;28;20104;-66
2021/09/10 13:19:28;;;;;;;43.38;34.13;;;;;;;;;;5079773;28;20052;-66
2021/09/10 13:21:54;;;;;;;44.10;33.55;;;;;;;;;;5098049;28;20054;-66
2021/09/10 13:24:20;;;;;;;46.22;35.95;;;;;;;;;;5080880;28;20113;-66
2021/09/10 13:26:47;;;;;;;46.70;35.58;;;;;;;;;;5094032;28;20382;-65
2021/09/10 13:29:14;;;;;;;43.55;34.08;;;;;;;;;;5095450;28;20036;-66
2021/09/10 13:31:42;;;;;;;48.08;35.88;;;;;;;;;;5100202;28;20043;-66
2021/09/10 13:34:09;;;;;;;44.00;36.65;;;;;;;;;;5100790;28;20125;-65
2021/09/10 13:36:36;;;;;;;43.97;35.55;;;;;;;;;;5083306;28;20039;-66
2021/09/10 13:39:02;;;;;;;46.53;34.28;;;;;;;;;;5074112;28;20040;-66
2021/09/10 13:41:29;;;;;;;46.85;36.42;;;;;;;;;;5079569;28;20040;-65
2021/09/10 13:43:55;;;;;;;43.30;33.15;;;;;;;;;;5073954;28;20048;-65
2021/09/10 13:46:21;;;;;;;45.17;33.55;;;;;;;;;;5076939;28;20039;-66
2021/09/10 13:48:47;;;;;;;45.42;33.08;;;;;;;;;;5060739;28;20097;-66
2021/09/10 13:51:13;;;;;;;44.83;34.00;;;;;;;;;;5084463;28;20105;-66
2021/09/10 13:53:39;;;;;;;42.33;32.88;;;;;;;;;;5101568;28;20028;-67
2021/09/10 13:56:06;;;;;;;59.72;39.90;;;;;;;;;;5082502;28;20043;-67
2021/09/10 13:58:33;;;;;;;43.47;33.80;;;;;;;;;;5105219;28;20087;-67
2021/09/10 14:00:59;;;;;;;40.65;32.40;;;;;;;;;;5080921;28;20426;-67
2021/09/10 14:03:25;;;;;;;44.53;34.75;;;;;;;;;;5091836;28;20036;-67
2021/09/10 14:05:51;;;;;;;48.05;37.70;;;;;;;;;;5095847;28;20377;-67
2021/09/10 14:08:17;;;;;;;46.17;36.85;;;;;;;;;;5100354;28;20028;-67
2021/09/10 14:10:44;;;;;;;49.15;37.38;;;;;;;;;;5077711;28;20051;-67
2021/09/10 14:13:10;;;;;;;45.13;36.72;;;;;;;;;;5076509;28;20124;-67
2021/09/10 14:15:36;;;;;;;50.03;38.42;;;;;;;;;;5084151;28;20082;-67